Time;durP1;ratioP1;P1;durP2;ratioP2;P2;SDS_P1;SDS_P2;PMS_P1;PMS_P2;Temp;Humidity;BMP_temperature;BMP_pressure;BME280_temperature;BME280_humidity;BME280_pressure;Samples;Min_cycle;Max_cycle;Signal;HPM_P1;HPM_P2
2021/09/26 00:00:16;;;;;;;7.43;4.88;;;17.40;99.50;;;;;;5066565;28;20036;-69
2021/09/26 00:02:42;;;;;;;7.80;4.68;;;17.40;99.40;;;;;;5061508;28;20029;-69
2021/09/26 00:05:10;;;;;;;5.70;3.63;;;17.40;99.10;;;;;;5063897;28;20054;-68
2021/09/26 00:07:36;;;;;;;7.72;4.38;;;17.40;98.70;;;;;;5063013;28;20035;-69
2021/09/26 00:10:03;;;;;;;6.20;3.80;;;17.50;98.80;;;;;;5062501;28;20025;-68
2021/09/26 00:12:29;;;;;;;5.10;3.72;;;17.40;98.90;;;;;;5063871;28;20031;-69
2021/09/26 00:14:55;;;;;;;4.72;3.40;;;17.40;98.40;;;;;;5062998;28;20025;-69
2021/09/26 00:17:21;;;;;;;6.15;3.40;;;17.40;98.30;;;;;;5059252;28;20060;-69
2021/09/26 00:19:46;;;;;;;4.65;3.47;;;17.50;98.40;;;;;;5063593;28;20521;-68
2021/09/26 00:22:12;;;;;;;5.80;3.45;;;17.40;98.20;;;;;;5061644;28;20037;-68
2021/09/26 00:24:38;;;;;;;5.68;3.47;;;17.50;98.10;;;;;;5064587;28;20060;-69
2021/09/26 00:27:07;;;;;;;5.38;3.25;;;17.40;98.10;;;;;;5060367;28;20054;-69
2021/09/26 00:29:32;;;;;;;6.53;3.95;;;17.40;97.90;;;;;;5065536;28;20940;-69
2021/09/26 00:31:58;;;;;;;7.20;4.45;;;17.40;97.60;;;;;;5067073;28;20036;-69
2021/09/26 00:34:24;;;;;;;5.85;4.18;;;17.40;97.50;;;;;;5061648;28;20029;-68
2021/09/26 00:36:49;;;;;;;6.75;4.22;;;17.30;97.40;;;;;;5066185;28;20077;-67
2021/09/26 00:39:15;;;;;;;10.25;5.90;;;17.30;97.40;;;;;;5064031;28;20041;-67
2021/09/26 00:41:41;;;;;;;12.55;7.15;;;17.30;97.50;;;;;;5070395;28;20093;-67
2021/09/26 00:44:07;;;;;;;11.18;7.22;;;17.20;97.50;;;;;;5066958;28;20037;-67
2021/09/26 00:46:33;;;;;;;15.05;8.32;;;17.20;97.60;;;;;;5070406;28;20024;-67
2021/09/26 00:48:58;;;;;;;12.65;8.05;;;17.20;97.60;;;;;;5061702;28;20025;-67
2021/09/26 00:51:24;;;;;;;13.70;8.20;;;17.10;97.40;;;;;;5067831;28;20395;-67
2021/09/26 00:53:50;;;;;;;9.32;7.20;;;17.20;97.50;;;;;;5065194;28;20035;-67
2021/09/26 00:56:15;;;;;;;9.27;6.18;;;17.20;97.50;;;;;;5066018;28;20028;-66
2021/09/26 00:58:42;;;;;;;6.50;5.30;;;17.20;97.50;;;;;;5069953;28;20037;-67
2021/09/26 01:01:08;;;;;;;8.13;5.50;;;17.10;97.60;;;;;;5066807;28;20738;-67
2021/09/26 01:03:33;;;;;;;10.73;5.40;;;17.10;97.60;;;;;;5064612;28;20036;-67
2021/09/26 01:06:30;;;;;;;6.88;4.57;;;17.10;97.70;;;;;;5067952;28;20047;-67
2021/09/26 01:09:30;;;;;;;8.07;4.22;;;17.20;97.70;;;;;;5065625;28;20032;-67
2021/09/26 01:12:34;;;;;;;4.78;3.95;;;17.20;97.80;;;;;;5062822;28;20048;-67
2021/09/26 01:15:15;;;;;;;5.68;3.83;;;17.20;97.80;;;;;;5069977;28;20418;-67
2021/09/26 01:17:51;;;;;;;6.53;3.80;;;17.20;97.80;;;;;;5070091;28;20120;-67
2021/09/26 01:20:34;;;;;;;6.97;4.00;;;17.20;97.90;;;;;;5064658;28;20037;-67
2021/09/26 01:23:06;;;;;;;5.40;3.60;;;17.20;97.90;;;;;;5069269;28;20083;-67
2021/09/26 01:25:43;;;;;;;6.65;3.13;;;17.20;97.90;;;;;;5067467;28;20047;-69
2021/09/26 01:28:11;;;;;;;4.78;3.30;;;17.20;97.90;;;;;;5068932;28;20111;-67
2021/09/26 01:30:44;;;;;;;5.75;3.30;;;17.20;97.90;;;;;;5067442;28;20135;-67
2021/09/26 01:33:15;;;;;;;5.68;3.25;;;17.20;97.90;;;;;;5067525;28;20467;-67
2021/09/26 01:35:53;;;;;;;5.25;3.05;;;17.20;97.90;;;;;;5064840;28;20091;-67
2021/09/26 01:38:40;;;;;;;5.85;3.83;;;17.30;98.00;;;;;;5060323;28;20048;-67
2021/09/26 01:41:15;;;;;;;6.25;4.47;;;17.20;98.10;;;;;;5064847;28;20097;-67
2021/09/26 01:43:46;;;;;;;15.48;8.73;;;17.20;98.10;;;;;;5068082;28;20032;-66
2021/09/26 01:46:18;;;;;;;18.58;11.27;;;17.20;98.10;;;;;;5065890;28;20070;-67
2021/09/26 01:48:59;;;;;;;17.08;10.25;;;17.30;98.20;;;;;;5066833;28;20032;-67
2021/09/26 01:51:26;;;;;;;13.40;8.73;;;17.20;98.20;;;;;;5062013;28;20052;-67
2021/09/26 01:53:54;;;;;;;15.95;9.55;;;17.30;98.30;;;;;;5066448;28;20032;-67
2021/09/26 01:56:21;;;;;;;37.30;15.40;;;17.30;98.40;;;;;;5064785;28;20055;-67
2021/09/26 01:58:49;;;;;;;40.10;23.25;;;17.30;98.40;;;;;;5065810;28;20079;-67
2021/09/26 02:01:16;;;;;;;46.60;28.33;;;17.20;98.40;;;;;;5067641;28;20699;-67
2021/09/26 02:03:42;;;;;;;54.80;33.70;;;17.20;98.50;;;;;;5067333;28;20114;-65
2021/09/26 02:06:09;;;;;;;46.40;28.42;;;17.20;98.60;;;;;;5066250;28;20037;-67
2021/09/26 02:08:36;;;;;;;39.65;22.33;;;17.20;98.70;;;;;;5065705;28;20036;-67
2021/09/26 02:11:01;;;;;;;30.05;16.85;;;17.20;98.70;;;;;;5066465;28;20070;-67
2021/09/26 02:13:29;;;;;;;17.88;11.55;;;17.20;98.80;;;;;;5067033;28;20032;-67
2021/09/26 02:15:55;;;;;;;18.63;9.90;;;17.20;98.80;;;;;;5066476;28;20028;-68
2021/09/26 02:18:21;;;;;;;15.20;7.63;;;17.20;98.90;;;;;;5066222;28;20064;-69
2021/09/26 02:20:47;;;;;;;11.90;6.43;;;17.10;98.90;;;;;;5066959;28;20067;-67
2021/09/26 02:23:14;;;;;;;9.00;6.47;;;17.10;98.90;;;;;;5066770;28;20032;-67
2021/09/26 02:25:42;;;;;;;7.75;5.00;;;17.20;99.00;;;;;;5066133;28;20029;-67
2021/09/26 02:28:08;;;;;;;9.55;4.80;;;17.10;99.00;;;;;;5066988;28;20044;-67
2021/09/26 02:30:34;;;;;;;6.43;4.82;;;17.10;99.00;;;;;;5065752;28;20024;-67
2021/09/26 02:33:00;;;;;;;6.97;4.32;;;17.20;99.10;;;;;;5066501;28;20032;-66
2021/09/26 02:35:26;;;;;;;6.68;4.25;;;17.20;99.10;;;;;;5066466;28;20028;-66
2021/09/26 02:37:52;;;;;;;7.25;4.10;;;17.20;99.10;;;;;;5066124;28;20027;-67
2021/09/26 02:40:19;;;;;;;8.40;4.82;;;17.10;99.10;;;;;;5067327;28;20029;-67
2021/09/26 02:43:26;;;;;;;5.57;3.80;;;17.20;99.20;;;;;;5066431;28;20127;-66
2021/09/26 02:46:16;;;;;;;5.47;3.65;;;17.20;99.30;;;;;;5067372;28;20036;-69
2021/09/26 02:48:43;;;;;;;4.53;3.25;;;17.20;99.40;;;;;;5067107;28;20494;-67
2021/09/26 02:51:11;;;;;;;5.72;3.47;;;17.10;99.40;;;;;;5066347;28;20039;-65
2021/09/26 02:53:38;;;;;;;5.65;2.75;;;17.10;99.50;;;;;;5066971;28;20044;-68
2021/09/26 02:56:04;;;;;;;8.45;3.58;;;17.10;99.50;;;;;;5066276;28;20039;-69
2021/09/26 02:58:30;;;;;;;4.25;3.00;;;17.10;99.70;;;;;;5063986;28;20028;-66
2021/09/26 03:00:56;;;;;;;3.80;3.00;;;17.10;99.50;;;;;;5066826;28;20039;-68
2021/09/26 03:03:26;;;;;;;7.82;3.55;;;17.10;99.70;;;;;;5067007;28;20029;-68
2021/09/26 03:05:53;;;;;;;4.32;3.72;;;17.10;99.60;;;;;;5066979;28;20025;-66
2021/09/26 03:08:20;;;;;;;4.45;3.35;;;17.10;99.50;;;;;;5065925;28;20352;-68
2021/09/26 03:10:52;;;;;;;4.32;3.08;;;17.10;99.50;;;;;;5066799;28;20091;-68
2021/09/26 03:13:18;;;;;;;4.95;3.35;;;17.10;99.70;;;;;;5066219;28;20023;-69
2021/09/26 03:15:44;;;;;;;5.88;3.75;;;17.00;99.70;;;;;;5061617;28;20094;-69
2021/09/26 03:18:10;;;;;;;6.15;3.95;;;17.00;99.80;;;;;;5066311;28;20109;-68
2021/09/26 03:20:35;;;;;;;6.30;3.92;;;17.00;99.80;;;;;;5063629;28;20032;-68
2021/09/26 03:23:01;;;;;;;5.78;3.90;;;17.00;99.80;;;;;;5065101;28;20711;-68
2021/09/26 03:25:27;;;;;;;6.85;4.20;;;17.00;99.80;;;;;;5067311;28;20036;-68
2021/09/26 03:28:00;;;;;;;7.25;4.15;;;17.00;99.90;;;;;;5065050;28;20494;-68
2021/09/26 03:30:25;;;;;;;6.20;3.70;;;17.00;99.90;;;;;;5066616;28;20051;-68
2021/09/26 03:32:51;;;;;;;7.75;4.13;;;17.00;99.90;;;;;;5062789;28;20474;-68
2021/09/26 03:35:17;;;;;;;7.50;4.20;;;16.90;99.90;;;;;;5063871;28;20046;-68
2021/09/26 03:37:43;;;;;;;5.63;4.03;;;16.90;99.90;;;;;;5067115;28;20131;-68
2021/09/26 03:40:10;;;;;;;6.65;4.28;;;17.00;99.90;;;;;;5064614;28;20530;-68
2021/09/26 03:42:37;;;;;;;4.75;3.53;;;17.00;99.90;;;;;;5064219;28;20116;-68
2021/09/26 03:45:04;;;;;;;5.75;3.70;;;17.00;99.90;;;;;;5064731;28;20055;-68
2021/09/26 03:47:31;;;;;;;7.07;4.32;;;17.00;99.90;;;;;;5065473;28;20032;-68
2021/09/26 03:49:57;;;;;;;8.13;4.57;;;17.00;99.90;;;;;;5065090;28;20471;-68
2021/09/26 03:52:23;;;;;;;6.55;4.45;;;17.00;99.90;;;;;;5064258;28;20063;-66
2021/09/26 03:54:50;;;;;;;8.55;4.70;;;17.00;99.90;;;;;;5063899;28;20519;-68
2021/09/26 03:57:20;;;;;;;6.47;4.03;;;17.00;99.90;;;;;;5064105;28;20033;-68
2021/09/26 03:59:46;;;;;;;5.95;4.35;;;17.00;99.90;;;;;;5065806;28;20534;-68
2021/09/26 04:02:12;;;;;;;8.40;4.63;;;17.00;99.90;;;;;;5062638;28;20064;-68
2021/09/26 04:04:38;;;;;;;5.93;4.60;;;17.00;99.90;;;;;;5063780;28;20555;-68
2021/09/26 04:07:04;;;;;;;6.13;4.43;;;17.00;99.90;;;;;;5063497;28;20536;-67
2021/09/26 04:09:30;;;;;;;8.77;4.60;;;17.00;99.90;;;;;;5065247;28;20039;-68
2021/09/26 04:11:55;;;;;;;7.47;4.55;;;17.00;99.90;;;;;;5063326;28;20035;-68
2021/09/26 04:14:21;;;;;;;4.63;4.07;;;17.00;99.90;;;;;;5066696;28;20037;-68
2021/09/26 04:16:49;;;;;;;6.70;4.97;;;17.00;99.90;;;;;;5062090;28;20029;-68
2021/09/26 04:19:16;;;;;;;7.97;4.70;;;17.00;99.90;;;;;;5064345;28;20379;-67
2021/09/26 04:21:43;;;;;;;7.30;4.63;;;17.00;99.90;;;;;;5063875;28;20033;-67
2021/09/26 04:24:10;;;;;;;7.90;5.03;;;17.00;99.90;;;;;;5063114;28;20040;-67
2021/09/26 04:26:36;;;;;;;7.22;5.03;;;17.00;99.90;;;;;;5063835;28;20021;-67
2021/09/26 04:29:01;;;;;;;8.38;5.10;;;17.00;99.90;;;;;;5061829;28;20480;-67
2021/09/26 04:31:27;;;;;;;6.45;5.50;;;17.00;99.90;;;;;;5064529;28;20032;-68
2021/09/26 04:33:53;;;;;;;7.57;5.20;;;17.00;99.90;;;;;;5063840;28;20047;-68
2021/09/26 04:36:18;;;;;;;6.88;5.85;;;17.10;99.90;;;;;;5063592;28;20025;-67
2021/09/26 04:38:44;;;;;;;15.07;7.82;;;17.00;99.90;;;;;;5064307;28;20467;-67
2021/09/26 04:41:10;;;;;;;12.25;8.45;;;17.10;99.90;;;;;;5063833;28;20044;-68
2021/09/26 04:43:35;;;;;;;18.73;10.75;;;17.10;99.90;;;;;;5063446;28;20032;-67
2021/09/26 04:46:01;;;;;;;18.10;11.23;;;17.10;99.90;;;;;;5060575;28;20115;-68
2021/09/26 04:48:27;;;;;;;19.88;11.43;;;17.00;99.90;;;;;;5064065;28;20421;-68
2021/09/26 04:50:53;;;;;;;19.75;12.27;;;17.10;99.90;;;;;;5066291;28;20028;-67
2021/09/26 04:53:19;;;;;;;25.95;14.90;;;17.10;99.90;;;;;;5063626;28;20043;-70
2021/09/26 04:55:44;;;;;;;32.35;16.17;;;17.10;99.90;;;;;;5063024;28;20607;-67
2021/09/26 04:58:10;;;;;;;30.58;16.75;;;17.10;99.90;;;;;;5063765;28;20028;-67
2021/09/26 05:00:37;;;;;;;35.85;18.40;;;17.10;99.90;;;;;;5062966;28;20032;-66
2021/09/26 05:03:03;;;;;;;33.28;18.77;;;17.10;99.90;;;;;;5059644;28;20134;-66
2021/09/26 05:05:29;;;;;;;35.08;18.77;;;17.10;99.90;;;;;;5064409;28;20447;-67
2021/09/26 05:07:56;;;;;;;28.27;17.48;;;17.10;99.90;;;;;;5063661;28;20099;-67
2021/09/26 05:10:21;;;;;;;27.33;15.52;;;17.10;99.90;;;;;;5065245;28;20479;-67
2021/09/26 05:12:47;;;;;;;24.77;14.70;;;17.10;99.90;;;;;;5065781;28;20032;-67
2021/09/26 05:15:13;;;;;;;20.20;13.05;;;17.10;99.90;;;;;;5065300;28;20643;-66
2021/09/26 05:17:39;;;;;;;22.05;12.63;;;17.10;99.90;;;;;;5066252;28;20039;-67
2021/09/26 05:20:06;;;;;;;16.35;10.80;;;17.10;99.90;;;;;;5058713;28;20029;-67
2021/09/26 05:22:32;;;;;;;13.93;9.15;;;17.10;99.90;;;;;;5062879;28;20024;-67
2021/09/26 05:24:58;;;;;;;10.60;8.50;;;17.10;99.90;;;;;;5066384;28;20079;-67
2021/09/26 05:27:24;;;;;;;12.43;8.38;;;17.10;99.90;;;;;;5066866;28;20036;-65
2021/09/26 05:29:49;;;;;;;14.88;7.70;;;17.10;99.90;;;;;;5069491;28;20021;-67
2021/09/26 05:32:15;;;;;;;11.85;7.57;;;17.20;99.90;;;;;;5068233;28;20369;-67
2021/09/26 05:34:41;;;;;;;14.70;8.80;;;17.20;99.90;;;;;;5065697;28;20028;-67
2021/09/26 05:37:07;;;;;;;10.95;8.32;;;17.10;99.90;;;;;;5067813;28;20424;-67
2021/09/26 05:39:32;;;;;;;10.18;7.68;;;17.20;99.90;;;;;;5064737;28;20024;-67
2021/09/26 05:42:03;;;;;;;11.38;8.52;;;17.20;99.90;;;;;;5067671;28;20028;-66
2021/09/26 05:44:32;;;;;;;13.85;8.23;;;17.20;99.90;;;;;;5067586;28;20037;-67
2021/09/26 05:46:58;;;;;;;11.20;8.20;;;17.20;99.90;;;;;;5066223;28;20024;-66
2021/09/26 05:49:24;;;;;;;11.05;7.80;;;17.20;99.90;;;;;;5068891;28;20044;-67
2021/09/26 05:51:50;;;;;;;11.77;8.38;;;17.20;99.90;;;;;;5066863;28;20024;-67
2021/09/26 05:54:16;;;;;;;11.23;8.98;;;17.20;99.90;;;;;;5065178;28;20086;-67
2021/09/26 05:56:42;;;;;;;14.30;9.23;;;17.20;99.90;;;;;;5069923;28;20020;-68
2021/09/26 05:59:07;;;;;;;13.18;9.23;;;17.20;99.90;;;;;;5065979;28;20029;-67
2021/09/26 06:01:33;;;;;;;14.88;9.48;;;17.20;99.90;;;;;;5066772;28;20032;-67
2021/09/26 06:03:59;;;;;;;15.85;10.70;;;17.20;99.90;;;;;;5068932;28;20089;-67
2021/09/26 06:06:24;;;;;;;13.75;10.00;;;17.20;99.90;;;;;;5067203;28;20033;-67
2021/09/26 06:08:50;;;;;;;16.35;12.02;;;17.30;99.90;;;;;;5067855;28;20149;-67
2021/09/26 06:11:15;;;;;;;14.13;10.25;;;17.30;99.90;;;;;;5068537;28;20050;-67
2021/09/26 06:13:41;;;;;;;15.68;11.30;;;17.30;99.90;;;;;;5069310;28;20455;-67
2021/09/26 06:16:07;;;;;;;16.52;10.95;;;17.30;99.90;;;;;;5069570;28;20036;-66
2021/09/26 06:18:33;;;;;;;24.65;12.10;;;17.40;99.90;;;;;;5068536;28;21742;-67
2021/09/26 06:20:58;;;;;;;20.25;12.85;;;17.40;99.90;;;;;;5068387;28;20103;-68
2021/09/26 06:23:24;;;;;;;15.80;11.00;;;17.30;99.90;;;;;;5069714;28;20564;-67
2021/09/26 06:25:50;;;;;;;17.90;10.93;;;17.30;99.90;;;;;;5067703;28;20037;-66
2021/09/26 06:28:16;;;;;;;16.05;11.00;;;17.30;99.90;;;;;;5068764;28;20077;-66
2021/09/26 06:30:41;;;;;;;17.05;10.82;;;17.30;99.90;;;;;;5068637;28;20094;-66
2021/09/26 06:33:07;;;;;;;13.52;10.13;;;17.30;99.90;;;;;;5065242;28;20024;-67
2021/09/26 06:35:33;;;;;;;14.02;9.98;;;17.30;99.90;;;;;;5069991;28;20039;-68
2021/09/26 06:38:00;;;;;;;14.32;10.82;;;17.30;99.90;;;;;;5069241;28;20399;-68
2021/09/26 06:40:26;;;;;;;11.38;9.45;;;17.30;99.90;;;;;;5067032;28;20051;-67
2021/09/26 06:42:52;;;;;;;14.40;9.63;;;17.30;99.90;;;;;;5067429;28;20486;-68
2021/09/26 06:45:18;;;;;;;15.20;10.07;;;17.30;99.90;;;;;;5062968;28;20024;-68
2021/09/26 06:47:43;;;;;;;11.63;9.38;;;17.30;99.90;;;;;;5068027;28;20101;-67
2021/09/26 06:50:10;;;;;;;14.27;9.82;;;17.40;99.90;;;;;;5068220;28;20540;-67
2021/09/26 06:52:37;;;;;;;12.55;8.65;;;17.30;99.90;;;;;;5065069;28;20048;-67
2021/09/26 06:55:04;;;;;;;11.95;8.85;;;17.30;99.90;;;;;;5067411;28;20070;-67
2021/09/26 06:57:30;;;;;;;12.30;8.93;;;17.30;99.90;;;;;;5068726;28;20096;-67
2021/09/26 06:59:56;;;;;;;11.50;9.05;;;17.30;99.90;;;;;;5064203;28;20074;-67
2021/09/26 07:02:23;;;;;;;15.60;10.35;;;17.30;99.90;;;;;;5062689;28;20020;-68
2021/09/26 07:04:50;;;;;;;17.15;10.10;;;17.40;99.90;;;;;;5062588;28;20039;-66
2021/09/26 07:07:16;;;;;;;13.32;10.38;;;17.40;99.90;;;;;;5069025;28;20074;-66
2021/09/26 07:09:43;;;;;;;14.18;9.88;;;17.40;99.90;;;;;;5069302;28;20557;-67
2021/09/26 07:12:09;;;;;;;11.18;9.38;;;17.50;99.90;;;;;;5068770;28;20040;-68
2021/09/26 07:14:36;;;;;;;10.45;8.65;;;17.50;99.90;;;;;;5066672;28;20023;-67
2021/09/26 07:17:02;;;;;;;10.48;8.63;;;17.50;99.90;;;;;;5064565;28;20021;-66
2021/09/26 07:19:28;;;;;;;12.27;9.48;;;17.60;99.90;;;;;;5062036;28;20025;-68
2021/09/26 07:21:54;;;;;;;7.90;7.00;;;17.60;99.90;;;;;;5063935;28;20070;-68
2021/09/26 07:24:20;;;;;;;11.73;8.48;;;17.60;99.90;;;;;;5060978;28;20025;-68
2021/09/26 07:26:45;;;;;;;12.63;8.50;;;17.70;99.90;;;;;;5067124;28;20364;-67
2021/09/26 07:29:11;;;;;;;12.43;8.50;;;17.80;99.90;;;;;;5064343;28;20033;-66
2021/09/26 07:31:37;;;;;;;13.07;8.85;;;17.80;99.90;;;;;;5065806;28;20024;-67
2021/09/26 07:34:03;;;;;;;12.70;8.93;;;17.90;99.90;;;;;;5066828;28;20059;-67
2021/09/26 07:36:30;;;;;;;10.57;7.35;;;17.90;99.90;;;;;;5066764;28;20035;-68
2021/09/26 07:38:56;;;;;;;11.10;7.65;;;18.00;99.90;;;;;;5066640;28;20478;-67
2021/09/26 07:41:22;;;;;;;11.95;8.23;;;18.00;99.90;;;;;;5065900;28;20029;-65
2021/09/26 07:43:48;;;;;;;8.20;7.30;;;18.00;99.80;;;;;;5066655;28;20567;-68
2021/09/26 07:46:13;;;;;;;9.48;7.57;;;18.10;99.90;;;;;;5067856;28;20648;-68
2021/09/26 07:48:39;;;;;;;9.40;6.95;;;18.10;99.70;;;;;;5068051;28;20115;-68
2021/09/26 07:51:05;;;;;;;10.32;6.88;;;18.10;99.70;;;;;;5066605;28;20041;-68
2021/09/26 07:53:32;;;;;;;10.30;7.47;;;18.10;99.50;;;;;;5066132;28;20104;-68
2021/09/26 07:55:59;;;;;;;10.48;7.45;;;18.20;99.40;;;;;;5066756;28;20028;-68
2021/09/26 07:58:26;;;;;;;8.02;6.72;;;18.20;99.40;;;;;;5066182;28;20029;-67
2021/09/26 08:00:55;;;;;;;7.18;5.90;;;18.20;99.30;;;;;;5065221;28;20067;-67
2021/09/26 08:03:22;;;;;;;7.40;6.60;;;18.30;99.30;;;;;;5065975;28;20066;-68
2021/09/26 08:05:48;;;;;;;8.73;6.38;;;18.30;99.20;;;;;;5066658;28;20048;-70
2021/09/26 08:08:13;;;;;;;8.80;6.32;;;18.40;99.30;;;;;;5067539;28;20024;-68
2021/09/26 08:10:39;;;;;;;9.07;5.80;;;18.40;99.20;;;;;;5065530;28;20041;-67
2021/09/26 08:13:05;;;;;;;7.85;5.60;;;18.40;99.20;;;;;;5064666;28;20020;-70
2021/09/26 08:15:31;;;;;;;7.57;6.00;;;18.50;99.00;;;;;;5067352;28;20482;-68
2021/09/26 08:17:57;;;;;;;7.00;5.47;;;18.50;98.80;;;;;;5066619;28;20052;-70
2021/09/26 08:20:23;;;;;;;7.38;5.63;;;18.60;98.70;;;;;;5066432;28;20086;-69
2021/09/26 08:22:52;;;;;;;7.68;6.20;;;18.60;98.70;;;;;;5067024;28;20075;-70
2021/09/26 08:25:19;;;;;;;7.10;5.80;;;18.70;98.60;;;;;;5066169;28;20031;-69
2021/09/26 08:27:44;;;;;;;8.02;5.30;;;18.70;98.40;;;;;;5066105;28;20032;-69
2021/09/26 08:30:11;;;;;;;8.02;5.65;;;18.70;98.20;;;;;;5065093;28;20086;-69
2021/09/26 08:32:38;;;;;;;7.88;5.63;;;18.80;97.90;;;;;;5064853;28;20025;-68
2021/09/26 08:35:06;;;;;;;8.23;5.13;;;18.80;98.00;;;;;;5061339;28;20029;-68
2021/09/26 08:37:32;;;;;;;8.20;5.72;;;18.90;97.90;;;;;;5064942;28;20066;-69
2021/09/26 08:39:58;;;;;;;10.02;6.00;;;18.90;97.80;;;;;;5065249;28;20036;-69
2021/09/26 08:42:23;;;;;;;7.85;6.38;;;18.90;97.60;;;;;;5066779;28;20032;-70
2021/09/26 08:44:50;;;;;;;7.32;5.43;;;18.90;97.60;;;;;;5063958;28;20033;-69
2021/09/26 08:47:17;;;;;;;10.07;5.97;;;19.00;97.50;;;;;;5065540;28;20086;-70
2021/09/26 08:49:44;;;;;;;8.00;5.80;;;19.00;97.30;;;;;;5065512;28;20040;-70
2021/09/26 08:52:10;;;;;;;8.48;5.70;;;19.00;97.40;;;;;;5064396;28;20100;-70
2021/09/26 08:54:36;;;;;;;6.60;5.30;;;19.10;97.20;;;;;;5066344;28;20037;-70
2021/09/26 08:57:02;;;;;;;8.75;4.90;;;19.10;97.00;;;;;;5067480;28;20101;-69
2021/09/26 08:59:28;;;;;;;6.25;5.10;;;19.20;97.10;;;;;;5070121;28;20131;-70
2021/09/26 09:01:54;;;;;;;7.22;4.80;;;19.30;96.90;;;;;;5066825;28;20582;-70
2021/09/26 09:04:36;;;;;;;8.88;4.90;;;19.30;96.80;;;;;;5064567;28;20032;-69
2021/09/26 09:07:04;;;;;;;6.38;4.72;;;19.30;96.70;;;;;;5066616;28;20419;-70
2021/09/26 09:09:30;;;;;;;6.78;4.70;;;19.40;96.70;;;;;;5065117;28;21910;-69
2021/09/26 09:12:04;;;;;;;6.78;4.43;;;19.50;96.50;;;;;;5068146;28;20029;-69
2021/09/26 09:14:54;;;;;;;5.10;4.53;;;19.50;96.60;;;;;;5062819;28;20608;-70
2021/09/26 09:17:41;;;;;;;6.05;5.13;;;19.60;96.80;;;;;;5056606;28;20066;-70
2021/09/26 09:20:18;;;;;;;8.85;4.93;;;19.60;96.40;;;;;;5064791;28;20040;-70
2021/09/26 09:22:47;;;;;;;6.05;4.32;;;19.60;96.20;;;;;;5067584;28;20028;-69
2021/09/26 09:25:48;;;;;;;6.22;4.65;;;19.70;96.20;;;;;;5066143;28;20025;-69
2021/09/26 09:28:15;;;;;;;7.68;5.50;;;19.80;96.20;;;;;;5067771;28;20075;-69
2021/09/26 09:30:53;;;;;;;5.22;4.65;;;19.80;95.90;;;;;;5070794;28;20036;-70
2021/09/26 09:33:21;;;;;;;5.68;4.50;;;19.90;95.90;;;;;;5067397;28;20107;-69
2021/09/26 09:35:49;;;;;;;5.38;4.40;;;20.00;95.90;;;;;;5069299;28;20017;-69
2021/09/26 09:38:35;;;;;;;8.05;5.20;;;20.00;95.80;;;;;;5067381;28;20090;-69
2021/09/26 09:41:02;;;;;;;6.72;4.78;;;20.00;95.80;;;;;;5067743;28;20466;-69
2021/09/26 09:43:28;;;;;;;7.28;6.00;;;20.10;95.80;;;;;;5068475;28;20028;-69
2021/09/26 09:45:57;;;;;;;5.78;4.82;;;20.20;95.40;;;;;;5070131;28;20102;-70
2021/09/26 09:48:29;;;;;;;6.93;4.43;;;20.20;95.50;;;;;;5066533;28;20398;-70
2021/09/26 09:51:09;;;;;;;7.72;4.82;;;20.30;95.50;;;;;;5067470;28;20414;-71
2021/09/26 09:53:39;;;;;;;8.75;4.88;;;20.40;95.20;;;;;;5069870;28;20025;-69
2021/09/26 09:56:10;;;;;;;5.88;4.22;;;20.50;95.10;;;;;;5068107;28;20556;-70
2021/09/26 09:58:44;;;;;;;5.93;4.32;;;20.50;95.20;;;;;;5068464;28;20037;-71
2021/09/26 10:01:17;;;;;;;5.88;4.25;;;20.60;94.90;;;;;;5066497;28;20043;-70
2021/09/26 10:03:49;;;;;;;5.18;4.30;;;20.60;94.70;;;;;;5070372;28;20028;-69
2021/09/26 10:06:21;;;;;;;5.57;4.20;;;20.70;94.40;;;;;;5068675;28;20103;-69
2021/09/26 10:08:48;;;;;;;4.90;4.40;;;20.80;94.20;;;;;;5068497;28;20040;-69
2021/09/26 10:11:14;;;;;;;6.72;4.63;;;20.80;94.10;;;;;;5066616;28;20034;-70
2021/09/26 10:13:40;;;;;;;4.68;4.18;;;20.80;94.20;;;;;;5070063;28;20482;-70
2021/09/26 10:16:08;;;;;;;6.10;4.40;;;20.80;94.20;;;;;;5067284;28;20029;-71
2021/09/26 10:18:36;;;;;;;5.07;4.13;;;20.90;94.30;;;;;;5066801;28;20032;-72
2021/09/26 10:21:04;;;;;;;6.40;4.53;;;21.00;94.20;;;;;;5065200;28;20024;-70
2021/09/26 10:23:30;;;;;;;6.18;4.45;;;21.00;94.10;;;;;;5070150;28;20044;-70
2021/09/26 10:25:58;;;;;;;6.50;4.55;;;21.00;93.80;;;;;;5069624;28;20100;-69
2021/09/26 10:28:29;;;;;;;4.28;3.83;;;21.10;93.80;;;;;;5064850;28;20040;-69
2021/09/26 10:30:57;;;;;;;5.20;3.65;;;21.20;93.90;;;;;;5069468;28;20395;-68
2021/09/26 10:33:25;;;;;;;7.00;4.40;;;21.20;93.50;;;;;;5067816;28;20877;-70
2021/09/26 10:35:52;;;;;;;5.70;3.95;;;21.20;93.60;;;;;;5066632;28;20040;-70
2021/09/26 10:38:19;;;;;;;7.80;4.22;;;21.30;93.10;;;;;;5065073;28;20063;-68
2021/09/26 10:40:45;;;;;;;5.38;3.90;;;21.30;93.30;;;;;;5067046;28;20066;-69
2021/09/26 10:43:20;;;;;;;6.18;3.97;;;21.40;93.10;;;;;;5067828;28;20702;-68
2021/09/26 10:45:48;;;;;;;4.70;4.20;;;21.50;93.00;;;;;;5067087;28;20036;-69
2021/09/26 10:48:14;;;;;;;5.88;3.95;;;21.70;93.00;;;;;;5067654;28;20043;-72
2021/09/26 10:50:42;;;;;;;4.80;4.05;;;21.80;92.70;;;;;;5070513;28;20036;-70
2021/09/26 10:53:14;;;;;;;5.35;3.30;;;21.90;93.10;;;;;;5068560;28;20130;-69
2021/09/26 10:55:41;;;;;;;3.95;3.03;;;22.20;92.40;;;;;;5069348;28;20016;-69
2021/09/26 10:58:07;;;;;;;3.85;3.10;;;23.10;91.60;;;;;;5065184;28;20086;-69
2021/09/26 11:00:38;;;;;;;5.00;3.10;;;24.70;90.50;;;;;;5068454;28;20024;-70
2021/09/26 11:03:15;;;;;;;4.47;3.00;;;27.00;80.80;;;;;;5067213;28;20032;-69
2021/09/26 11:05:41;;;;;;;5.18;3.00;;;28.90;73.00;;;;;;5065755;28;20090;-70
2021/09/26 11:08:12;;;;;;;3.05;2.75;;;30.90;67.60;;;;;;5068257;28;20502;-70
2021/09/26 11:10:44;;;;;;;4.07;3.30;;;32.40;60.00;;;;;;5068318;28;20653;-70
2021/09/26 11:13:29;;;;;;;4.70;2.90;;;33.20;55.00;;;;;;5067396;28;20032;-70
2021/09/26 11:16:00;;;;;;;5.85;3.00;;;33.50;53.50;;;;;;5066993;28;20029;-70
2021/09/26 11:18:53;;;;;;;3.40;2.78;;;33.80;52.30;;;;;;5068321;28;20039;-70
2021/09/26 11:21:45;;;;;;;4.10;3.35;;;34.00;50.30;;;;;;5068975;28;20036;-70
2021/09/26 11:24:40;;;;;;;5.10;2.75;;;33.70;50.40;;;;;;5066704;28;20491;-69
2021/09/26 11:27:13;;;;;;;3.28;2.97;;;33.50;50.30;;;;;;5064801;28;20032;-70
2021/09/26 11:29:39;;;;;;;4.55;3.42;;;32.80;51.30;;;;;;5068011;28;20033;-70
2021/09/26 11:32:10;;;;;;;4.70;3.13;;;32.30;53.40;;;;;;5064950;28;20109;-69
2021/09/26 11:34:36;;;;;;;4.90;4.32;;;31.30;53.80;;;;;;5068213;28;20025;-69
2021/09/26 11:37:02;;;;;;;3.35;2.90;;;30.10;55.00;;;;;;5068625;28;20055;-69
2021/09/26 11:39:29;;;;;;;3.67;2.90;;;29.30;57.40;;;;;;5068611;28;20081;-69
2021/09/26 11:41:55;;;;;;;9.93;3.03;;;28.60;58.30;;;;;;5063767;28;20032;-69
2021/09/26 11:44:21;;;;;;;4.25;3.00;;;27.80;58.90;;;;;;5064548;28;20025;-74
2021/09/26 11:46:49;;;;;;;4.25;2.88;;;27.10;60.20;;;;;;5057815;28;20051;-69
2021/09/26 11:49:16;;;;;;;12.00;3.33;;;26.60;62.20;;;;;;5065016;28;20413;-70
2021/09/26 11:51:42;;;;;;;3.10;2.80;;;26.10;63.20;;;;;;5067693;28;20422;-69
2021/09/26 11:54:08;;;;;;;3.53;3.20;;;25.70;65.90;;;;;;5066993;28;20024;-69
2021/09/26 11:56:37;;;;;;;4.85;3.20;;;25.40;66.10;;;;;;5065024;28;20079;-69
2021/09/26 11:59:12;;;;;;;7.50;3.10;;;25.00;67.90;;;;;;5064807;28;20031;-70
2021/09/26 12:01:42;;;;;;;5.55;3.10;;;24.90;69.40;;;;;;5065250;28;20082;-68
2021/09/26 12:04:17;;;;;;;2.92;2.63;;;24.70;71.10;;;;;;5067744;28;20029;-69
2021/09/26 12:06:52;;;;;;;6.22;3.53;;;24.50;71.60;;;;;;5068640;28;20517;-70
2021/09/26 12:09:41;;;;;;;5.80;2.83;;;24.20;72.30;;;;;;5062675;28;20464;-70
2021/09/26 12:12:20;;;;;;;4.32;2.97;;;24.00;73.30;;;;;;5065143;28;20456;-66
2021/09/26 12:14:49;;;;;;;4.03;3.22;;;23.90;73.20;;;;;;5062138;28;20051;-66
2021/09/26 12:17:29;;;;;;;7.18;3.83;;;23.90;74.80;;;;;;5058605;28;20025;-67
2021/09/26 12:20:10;;;;;;;4.35;3.33;;;24.00;74.90;;;;;;5062465;28;20078;-66
2021/09/26 12:22:37;;;;;;;5.57;3.45;;;24.00;75.00;;;;;;5064739;28;20036;-67
2021/09/26 12:25:13;;;;;;;4.25;3.60;;;24.10;76.10;;;;;;5064380;28;20035;-65
2021/09/26 12:27:41;;;;;;;4.15;3.20;;;24.10;76.40;;;;;;5058940;28;20032;-67
2021/09/26 12:30:20;;;;;;;3.60;3.10;;;24.00;76.30;;;;;;5061381;28;20032;-67
2021/09/26 12:32:54;;;;;;;3.53;3.03;;;24.10;77.40;;;;;;5059238;28;20418;-66
2021/09/26 12:35:44;;;;;;;3.38;3.05;;;24.00;77.50;;;;;;5062902;28;20372;-66
2021/09/26 12:38:21;;;;;;;4.72;3.38;;;24.00;77.10;;;;;;5061653;28;20087;-65
2021/09/26 12:41:07;;;;;;;4.50;3.38;;;24.00;77.40;;;;;;5064713;28;20086;-68
2021/09/26 12:43:39;;;;;;;6.13;3.78;;;24.10;78.00;;;;;;5064812;28;20044;-68
2021/09/26 12:46:08;;;;;;;5.57;4.10;;;24.20;77.50;;;;;;5064095;28;20098;-67
2021/09/26 12:48:35;;;;;;;4.95;3.83;;;24.10;78.30;;;;;;5060949;28;20516;-66
2021/09/26 12:51:09;;;;;;;5.13;4.20;;;24.20;78.90;;;;;;5068335;28;20039;-67